createdAt,value
2018-09-22T00:01:37.541Z,100869.12
2018-09-22T00:04:07.087Z,100888.84
2018-09-22T00:06:36.611Z,100882.88
2018-09-22T00:09:09.825Z,100888.52
2018-09-22T00:11:39.414Z,100891.10
2018-09-22T00:14:09.333Z,100911.65
2018-09-22T00:16:39.201Z,100928.25
2018-09-22T00:19:08.874Z,100931.91
2018-09-22T00:21:38.705Z,100924.75
2018-09-22T00:24:08.171Z,100909.33
2018-09-22T00:26:38.928Z,100923.23
2018-09-22T00:29:08.609Z,100921.77
2018-09-22T00:31:38.097Z,100919.75
2018-09-22T00:34:07.949Z,100927.55
2018-09-22T00:36:38.451Z,100934.97
2018-09-22T00:39:09.493Z,100940.83
2018-09-22T00:41:39.126Z,100937.55
2018-09-22T00:44:08.673Z,100914.97
2018-09-22T00:46:38.886Z,100918.50
2018-09-22T00:49:08.389Z,100924.84
2018-09-22T00:51:37.945Z,100925.20
2018-09-22T00:54:07.473Z,100930.78
2018-09-22T00:56:37.042Z,100948.17
2018-09-22T00:59:06.933Z,100941.55
2018-09-22T01:01:36.482Z,100943.42
2018-09-22T01:04:06.051Z,100941.72
2018-09-22T01:06:35.585Z,100946.72
2018-09-22T01:09:06.704Z,100952.05
2018-09-22T01:11:36.268Z,100954.20
2018-09-22T01:14:06.093Z,100948.11
2018-09-22T01:16:35.613Z,100951.49
2018-09-22T01:19:05.525Z,100962.28
2018-09-22T01:21:35.034Z,100971.14
2018-09-22T01:24:04.884Z,100941.83
2018-09-22T01:26:34.458Z,100983.10
2018-09-22T01:29:05.189Z,100985.21
2018-09-22T01:31:34.724Z,100987.34
2018-09-22T01:34:04.233Z,100993.61
2018-09-22T01:36:33.743Z,100980.42
2018-09-22T01:39:03.581Z,100992.98
2018-09-22T01:41:33.093Z,100996.46
2018-09-22T01:44:09.033Z,100989.14
2018-09-22T01:46:38.656Z,101003.72
2018-09-22T01:49:08.232Z,101002.78
2018-09-22T01:51:37.727Z,101004.76
2018-09-22T01:54:07.549Z,101003.23
2018-09-22T01:56:37.069Z,101011.23
2018-09-22T01:59:06.583Z,101011.31
2018-09-22T02:01:36.120Z,101010.31
2018-09-22T02:04:05.653Z,101012.02
2018-09-22T02:06:35.218Z,101015.97
2018-09-22T02:09:06.263Z,101011.79
2018-09-22T02:11:35.803Z,101004.61
2018-09-22T02:14:05.268Z,101003.23
2018-09-22T02:16:34.787Z,101006.67
2018-09-22T02:19:04.562Z,101001.26
2018-09-22T02:21:34.066Z,101007.16
2018-09-22T02:24:03.578Z,101010.77
2018-09-22T02:26:33.273Z,101015.50
2018-09-22T02:29:02.814Z,101013.63
2018-09-22T02:31:32.658Z,101021.03
2018-09-22T02:34:02.630Z,101019.43
2018-09-22T02:36:32.328Z,101025.44
2018-09-22T02:39:01.841Z,101023.98
2018-09-22T02:41:31.361Z,101021.51
2018-09-22T02:44:00.866Z,101031.76
2018-09-22T02:46:30.350Z,101033.70
2018-09-22T02:48:59.927Z,101032.22
2018-09-22T02:51:29.661Z,101037.86
2018-09-22T02:53:59.232Z,101034.69
2018-09-22T02:56:28.762Z,101031.76
2018-09-22T02:58:58.253Z,101031.70
2018-09-22T03:01:28.070Z,101047.43
2018-09-22T03:03:57.537Z,101041.95
2018-09-22T03:06:27.121Z,101037.45
2018-09-22T03:08:56.649Z,101036.23
2018-09-22T03:11:26.686Z,101040.25
2018-09-22T03:13:56.194Z,101048.62
2018-09-22T03:16:25.709Z,101047.41
2018-09-22T03:18:55.205Z,101045.38
2018-09-22T03:21:24.703Z,101053.87
2018-09-22T03:23:54.231Z,101050.08
2018-09-22T03:26:23.783Z,101050.87
2018-09-22T03:28:53.464Z,101050.48
2018-09-22T03:31:23.333Z,101045.09
2018-09-22T03:33:53.071Z,101043.55
2018-09-22T03:36:22.609Z,101055.13
2018-09-22T03:38:52.104Z,101049.88
2018-09-22T03:41:21.659Z,101050.34
2018-09-22T03:43:51.145Z,101051.65
2018-09-22T03:46:20.636Z,101057.72
2018-09-22T03:48:50.136Z,101061.82
2018-09-22T03:51:19.665Z,101072.67
2018-09-22T03:53:49.141Z,101073.55
2018-09-22T03:56:18.685Z,101058.96
2018-09-22T03:58:48.313Z,101075.09
2018-09-22T04:01:17.886Z,101066.77
2018-09-22T04:03:47.402Z,101062.35
2018-09-22T04:06:16.954Z,101069.22
2018-09-22T04:08:46.441Z,101072.47
2018-09-22T04:11:15.990Z,101064.92
2018-09-22T04:13:45.539Z,101075.31
2018-09-22T04:16:15.046Z,101067.99
2018-09-22T04:18:44.589Z,101074.68
2018-09-22T04:21:14.114Z,101073.38
2018-09-22T04:23:44.261Z,101080.23
2018-09-22T04:26:13.796Z,101080.33
2018-09-22T04:28:43.314Z,101079.92
2018-09-22T04:31:12.835Z,101089.81
2018-09-22T04:33:42.349Z,101084.62
2018-09-22T04:36:12.030Z,101090.41
2018-09-22T04:38:41.590Z,101098.13
2018-09-22T04:41:11.090Z,101098.39
2018-09-22T04:43:40.630Z,101091.44
2018-09-22T04:46:10.126Z,101101.52
2018-09-22T04:48:39.654Z,101102.91
2018-09-22T04:51:09.200Z,101106.25
2018-09-22T04:53:38.725Z,101110.05
2018-09-22T04:56:08.207Z,101120.26
2018-09-22T04:58:37.758Z,101106.76
2018-09-22T05:01:07.297Z,101123.66
2018-09-22T05:03:36.869Z,101109.38
2018-09-22T05:06:06.657Z,101113.25
2018-09-22T05:08:36.343Z,101120.75
2018-09-22T05:11:06.109Z,101121.21
2018-09-22T05:13:35.909Z,101123.46
2018-09-22T05:16:05.909Z,101129.53
2018-09-22T05:18:35.663Z,101139.19
2018-09-22T05:21:06.014Z,101147.28
2018-09-22T05:23:35.532Z,101139.33
2018-09-22T05:26:05.035Z,101145.66
2018-09-22T05:28:35.049Z,101155.36
2018-09-22T05:31:04.554Z,101155.55
2018-09-22T05:33:34.124Z,101152.70
2018-09-22T05:36:03.832Z,101158.39
2018-09-22T05:38:33.394Z,101162.69
2018-09-22T05:41:03.005Z,101166.97
2018-09-22T05:43:32.618Z,101176.46
2018-09-22T05:46:02.168Z,101181.44
2018-09-22T05:48:31.653Z,101169.96
2018-09-22T05:51:01.194Z,101165.98
2018-09-22T05:53:30.758Z,101165.30
2018-09-22T05:56:00.310Z,101169.14
2018-09-22T05:58:30.034Z,101169.37
2018-09-22T06:00:59.549Z,101164.23
2018-09-22T06:03:29.476Z,101170.02
2018-09-22T06:05:59.214Z,101173.27
2018-09-22T06:08:28.914Z,101167.79
2018-09-22T06:10:58.487Z,101172.90
2018-09-22T06:13:28.066Z,101172.31
2018-09-22T06:15:57.639Z,101173.67
2018-09-22T06:18:27.211Z,101171.91
2018-09-22T06:20:56.800Z,101172.36
2018-09-22T06:23:27.281Z,101169.01
2018-09-22T06:25:57.137Z,101171.55
2018-09-22T06:28:26.680Z,101176.65
2018-09-22T06:30:56.312Z,101179.86
2018-09-22T06:33:26.009Z,101184.59
2018-09-22T06:35:55.633Z,101186.00
2018-09-22T06:38:25.273Z,101178.68
2018-09-22T06:40:54.831Z,101159.11
2018-09-22T06:43:24.351Z,101156.03
2018-09-22T06:45:53.846Z,101165.92
2018-09-22T06:48:23.385Z,101175.02
2018-09-22T06:50:52.956Z,101175.92
2018-09-22T06:53:22.496Z,101177.09
2018-09-22T06:55:52.033Z,101185.59
2018-09-22T06:58:21.524Z,101178.55
2018-09-22T07:00:51.059Z,101185.97
2018-09-22T07:03:20.605Z,101187.37
2018-09-22T07:05:50.109Z,101177.59
2018-09-22T07:08:19.699Z,101181.75
2018-09-22T07:10:49.259Z,101183.91
2018-09-22T07:13:19.111Z,101183.23
2018-09-22T07:15:48.728Z,101183.54
2018-09-22T07:18:18.250Z,101192.72
2018-09-22T07:20:53.300Z,101199.91
2018-09-22T07:23:22.799Z,101196.23
2018-09-22T07:25:52.335Z,101187.92
2018-09-22T07:28:21.885Z,101201.02
2018-09-22T07:30:51.457Z,101208.77
2018-09-22T07:33:21.152Z,101204.61
2018-09-22T07:35:50.671Z,101221.62
2018-09-22T07:38:20.545Z,101224.95
2018-09-22T07:40:50.115Z,101232.14
2018-09-22T07:43:19.745Z,101235.07
2018-09-22T07:45:49.727Z,101226.02
2018-09-22T07:48:19.478Z,101229.57
2018-09-22T07:50:49.005Z,101234.28
2018-09-22T07:53:18.521Z,101227.66
2018-09-22T07:55:48.074Z,101227.86
2018-09-22T07:58:17.596Z,101223.06
2018-09-22T08:00:47.113Z,101218.36
2018-09-22T08:03:16.808Z,101214.17
2018-09-22T08:05:46.338Z,101225.84
2018-09-22T08:08:15.895Z,101233.82
2018-09-22T08:10:45.527Z,101222.91
2018-09-22T08:13:15.278Z,101226.80
2018-09-22T08:15:44.844Z,101227.89
2018-09-22T08:18:14.548Z,101234.36
2018-09-22T08:20:44.051Z,101238.55
2018-09-22T08:23:13.626Z,101233.50
2018-09-22T08:25:43.372Z,101233.29
2018-09-22T08:28:12.878Z,101231.11
2018-09-22T08:30:42.461Z,101245.31
2018-09-22T08:33:11.976Z,101238.91
2018-09-22T08:35:41.556Z,101245.86
2018-09-22T08:38:11.082Z,101244.36
2018-09-22T08:40:40.673Z,101230.52
2018-09-22T08:43:10.239Z,101224.84
2018-09-22T08:45:39.774Z,101225.23
2018-09-22T08:48:09.310Z,101220.28
2018-09-22T08:50:39.023Z,101228.90
2018-09-22T08:53:08.588Z,101230.94
2018-09-22T08:55:38.119Z,101235.65
2018-09-22T08:58:07.986Z,101235.28
2018-09-22T09:00:37.502Z,101232.30
2018-09-22T09:03:07.025Z,101231.53
2018-09-22T09:05:36.592Z,101230.15
2018-09-22T09:08:06.171Z,101230.34
2018-09-22T09:10:35.901Z,101226.35
2018-09-22T09:13:05.454Z,101221.59
2018-09-22T09:15:34.973Z,101221.95
2018-09-22T09:18:04.902Z,101224.58
2018-09-22T09:20:34.986Z,101226.43
2018-09-22T09:23:04.537Z,101231.62
2018-09-22T09:25:34.023Z,101229.05
2018-09-22T09:28:03.584Z,101237.66
2018-09-22T09:30:33.252Z,101241.72
2018-09-22T09:33:03.046Z,101229.39
2018-09-22T09:35:32.585Z,101215.93
2018-09-22T09:38:02.181Z,101225.40
2018-09-22T09:40:31.738Z,101213.71
2018-09-22T09:43:01.291Z,101200.81
2018-09-22T09:45:30.814Z,101199.33
2018-09-22T09:48:00.327Z,101184.25
2018-09-22T09:50:29.874Z,101196.85
2018-09-22T09:52:59.415Z,101179.19
2018-09-22T09:55:28.984Z,101183.34
2018-09-22T09:57:58.538Z,101188.62
2018-09-22T10:00:33.464Z,101190.33
2018-09-22T10:03:03.297Z,101172.96
2018-09-22T10:05:33.043Z,101181.45
2018-09-22T10:08:03.288Z,101187.09
2018-09-22T10:10:32.812Z,101173.72
2018-09-22T10:13:02.419Z,101158.17
2018-09-22T10:15:32.536Z,101149.20
2018-09-22T10:18:02.066Z,101143.36
2018-09-22T10:20:31.818Z,101141.30
2018-09-22T10:23:01.404Z,101149.55
2018-09-22T10:25:30.972Z,101145.58
2018-09-22T10:28:00.543Z,101150.78
2018-09-22T10:30:30.072Z,101145.58
2018-09-22T10:32:59.623Z,101149.63
2018-09-22T10:35:29.202Z,101140.30
2018-09-22T10:37:58.724Z,101139.06
2018-09-22T10:40:28.626Z,101144.27
2018-09-22T10:42:59.279Z,101148.54
2018-09-22T10:45:28.805Z,101143.61
2018-09-22T10:47:58.352Z,101140.64
2018-09-22T10:50:27.882Z,101143.41
2018-09-22T10:52:57.482Z,101145.19
2018-09-22T10:55:27.185Z,101145.77
2018-09-22T10:57:56.814Z,101133.55
2018-09-22T11:00:26.377Z,101139.83
2018-09-22T11:02:56.899Z,101140.09
2018-09-22T11:05:26.474Z,101133.41
2018-09-22T11:07:55.990Z,101135.27
2018-09-22T11:10:25.777Z,101131.56
2018-09-22T11:12:55.352Z,101136.22
2018-09-22T11:15:24.933Z,101141.08
2018-09-22T11:17:54.578Z,101151.45
2018-09-22T11:20:24.509Z,101142.20
2018-09-22T11:22:54.018Z,101137.77
2018-09-22T11:25:23.541Z,101124.39
2018-09-22T11:27:53.081Z,101129.67
2018-09-22T11:30:22.921Z,101120.66
2018-09-22T11:32:52.472Z,101118.97
2018-09-22T11:35:21.972Z,101102.58
2018-09-22T11:37:51.603Z,101127.87
2018-09-22T11:40:21.108Z,101128.02
2018-09-22T11:42:50.632Z,101120.76
2018-09-22T11:45:20.195Z,101125.75
2018-09-22T11:47:49.744Z,101115.97
2018-09-22T11:50:23.071Z,101115.65
2018-09-22T11:52:52.597Z,101111.35
2018-09-22T11:55:22.104Z,101107.11
2018-09-22T11:57:51.623Z,101109.08
2018-09-22T12:00:21.103Z,101108.70
2018-09-22T12:02:50.633Z,101115.55
2018-09-22T12:05:20.201Z,101112.80
2018-09-22T12:07:49.739Z,101113.18
2018-09-22T12:10:19.322Z,101119.80
2018-09-22T12:12:48.882Z,101104.65
2018-09-22T12:15:18.428Z,101095.99
2018-09-22T12:17:47.936Z,101117.20
2018-09-22T12:20:17.557Z,101119.56
2018-09-22T12:22:47.234Z,101104.83
2018-09-22T12:25:16.749Z,101100.14
2018-09-22T12:27:46.402Z,101106.89
2018-09-22T12:30:16.066Z,101108.80
2018-09-22T12:32:45.607Z,101112.61
2018-09-22T12:35:15.235Z,101114.08
2018-09-22T12:37:44.844Z,101112.69
2018-09-22T12:40:14.400Z,101111.45
2018-09-22T12:42:43.917Z,101109.42
2018-09-22T12:45:13.495Z,101103.91
2018-09-22T12:47:43.069Z,101098.73
2018-09-22T12:50:12.605Z,101090.55
2018-09-22T12:52:42.134Z,101095.83
2018-09-22T12:55:11.688Z,101097.95
2018-09-22T12:57:41.259Z,101097.16
2018-09-22T13:00:10.918Z,101106.93
2018-09-22T13:02:40.940Z,101110.30
2018-09-22T13:05:11.385Z,101085.20
2018-09-22T13:07:40.898Z,101085.52
2018-09-22T13:10:10.461Z,101103.11
2018-09-22T13:12:40.055Z,101111.95
2018-09-22T13:15:09.580Z,101103.69
2018-09-22T13:17:39.300Z,101101.84
2018-09-22T13:20:08.924Z,101103.58
2018-09-22T13:22:38.961Z,101108.91
2018-09-22T13:25:08.843Z,101100.72
2018-09-22T13:27:38.362Z,101089.47
2018-09-22T13:30:07.993Z,101075.80
2018-09-22T13:32:37.555Z,101069.02
2018-09-22T13:35:07.119Z,101063.00
2018-09-22T13:37:36.657Z,101065.11
2018-09-22T13:40:06.322Z,101079.62
2018-09-22T13:42:35.892Z,101078.19
2018-09-22T13:45:05.479Z,101072.62
2018-09-22T13:47:35.057Z,101046.48
2018-09-22T13:50:05.024Z,101050.73
2018-09-22T13:52:34.586Z,101065.89
2018-09-22T13:55:04.437Z,101072.58
2018-09-22T13:57:34.031Z,101077.59
2018-09-22T14:00:03.758Z,101088.89
2018-09-22T14:02:33.262Z,101084.37
2018-09-22T14:05:02.794Z,101094.80
2018-09-22T14:07:32.342Z,101097.64
2018-09-22T14:10:01.906Z,101095.55
2018-09-22T14:12:31.609Z,101083.83
2018-09-22T14:15:01.245Z,101070.91
2018-09-22T14:17:30.756Z,101049.20
2018-09-22T14:20:00.308Z,101030.33
2018-09-22T14:22:30.447Z,101041.39
2018-09-22T14:25:00.013Z,101029.78
2018-09-22T14:27:29.495Z,101030.06
2018-09-22T14:29:59.155Z,101023.13
2018-09-22T14:32:28.664Z,101023.64
2018-09-22T14:34:58.270Z,101044.83
2018-09-22T14:37:27.776Z,101036.38
2018-09-22T14:39:57.302Z,101043.63
2018-09-22T14:42:28.046Z,101052.48
2018-09-22T14:44:58.236Z,101054.97
2018-09-22T14:47:27.741Z,101079.22
2018-09-22T14:49:57.334Z,101083.97
2018-09-22T14:52:26.962Z,101093.09
2018-09-22T14:54:56.517Z,101099.89
2018-09-22T14:57:26.017Z,101098.00
2018-09-22T14:59:55.535Z,101109.67
2018-09-22T15:02:29.648Z,101096.31
2018-09-22T15:04:59.272Z,101099.47
2018-09-22T15:07:28.868Z,101103.98
2018-09-22T15:09:58.415Z,101097.69
2018-09-22T15:12:27.940Z,101108.05
2018-09-22T15:14:57.593Z,101103.95
2018-09-22T15:17:27.102Z,101106.09
2018-09-22T15:19:56.823Z,101110.43
2018-09-22T15:22:26.448Z,101108.02
2018-09-22T15:24:56.018Z,101120.68
2018-09-22T15:27:25.669Z,101114.87
2018-09-22T15:29:55.214Z,101111.06
2018-09-22T15:32:24.733Z,101112.23
2018-09-22T15:34:54.446Z,101104.12
2018-09-22T15:37:24.034Z,101107.24
2018-09-22T15:39:53.550Z,101115.67
2018-09-22T15:42:23.122Z,101114.41
2018-09-22T15:44:52.639Z,101109.47
2018-09-22T15:47:22.232Z,101111.80
2018-09-22T15:49:51.848Z,101119.00
2018-09-22T15:52:21.498Z,101116.05
2018-09-22T15:54:51.177Z,101119.61
2018-09-22T15:57:20.722Z,101110.80
2018-09-22T15:59:50.341Z,101115.93
2018-09-22T16:02:19.907Z,101122.99
2018-09-22T16:04:50.134Z,101126.38
2018-09-22T16:07:19.747Z,101121.34
2018-09-22T16:09:49.504Z,101131.05
2018-09-22T16:12:19.462Z,101118.98
2018-09-22T16:14:50.161Z,101115.80
2018-09-22T16:17:19.997Z,101116.62
2018-09-22T16:19:49.564Z,101108.84
2018-09-22T16:22:19.466Z,101114.84
2018-09-22T16:24:49.063Z,101118.42
2018-09-22T16:27:18.694Z,101109.38
2018-09-22T16:29:48.365Z,101111.09
2018-09-22T16:32:18.008Z,101104.28
2018-09-22T16:34:47.538Z,101096.19
2018-09-22T16:37:17.247Z,101095.03
2018-09-22T16:39:46.785Z,101090.63
2018-09-22T16:42:16.348Z,101103.53
2018-09-22T16:44:45.865Z,101100.09
2018-09-22T16:47:15.434Z,101103.08
2018-09-22T16:49:45.039Z,101090.45
2018-09-22T16:52:14.765Z,101088.73
2018-09-22T16:54:45.471Z,101086.31
2018-09-22T16:57:15.001Z,101099.69
2018-09-22T16:59:44.563Z,101082.93
2018-09-22T17:02:14.140Z,101082.56
2018-09-22T17:04:43.682Z,101084.20
2018-09-22T17:07:14.121Z,101088.05
2018-09-22T17:09:44.230Z,101089.50
2018-09-22T17:12:13.826Z,101086.11
2018-09-22T17:14:43.430Z,101089.20
2018-09-22T17:17:13.116Z,101077.08
2018-09-22T17:19:42.662Z,101078.30
2018-09-22T17:22:12.198Z,101074.91
2018-09-22T17:24:41.751Z,101071.37
2018-09-22T17:27:11.376Z,101077.19
2018-09-22T17:29:41.133Z,101080.87
2018-09-22T17:32:10.662Z,101077.93
2018-09-22T17:34:40.240Z,101083.34
2018-09-22T17:37:09.779Z,101091.08
2018-09-22T17:39:39.345Z,101106.94
2018-09-22T17:42:08.980Z,101106.55
2018-09-22T17:44:38.650Z,101103.00
2018-09-22T17:47:08.553Z,101098.44
2018-09-22T17:49:38.062Z,101117.51
2018-09-22T17:52:07.877Z,101123.59
2018-09-22T17:54:38.577Z,101121.59
2018-09-22T17:57:08.423Z,101117.67
2018-09-22T17:59:37.979Z,101117.83
2018-09-22T18:02:08.117Z,101125.00
2018-09-22T18:04:37.640Z,101130.23
2018-09-22T18:07:07.242Z,101130.92
2018-09-22T18:09:36.745Z,101125.82
2018-09-22T18:12:06.559Z,101127.86
2018-09-22T18:14:36.128Z,101133.17
2018-09-22T18:17:06.795Z,101125.61
2018-09-22T18:19:36.290Z,101125.44
2018-09-22T18:22:06.927Z,101106.08
2018-09-22T18:24:36.469Z,101127.22
2018-09-22T18:27:05.993Z,101130.30
2018-09-22T18:29:35.527Z,101130.21
2018-09-22T18:32:05.258Z,101135.77
2018-09-22T18:34:34.771Z,101148.69
2018-09-22T18:37:04.534Z,101148.28
2018-09-22T18:39:34.035Z,101142.56
2018-09-22T18:42:03.590Z,101148.06
2018-09-22T18:44:33.148Z,101145.64
2018-09-22T18:47:02.708Z,101147.48
2018-09-22T18:49:32.271Z,101138.13
2018-09-22T18:52:01.789Z,101133.28
2018-09-22T18:54:31.510Z,101140.38
2018-09-22T18:57:01.049Z,101139.44
2018-09-22T18:59:30.756Z,101147.02
2018-09-22T19:02:00.359Z,101145.86
2018-09-22T19:04:29.932Z,101152.36
2018-09-22T19:06:59.461Z,101147.48
2018-09-22T19:09:28.952Z,101157.03
2018-09-22T19:11:58.896Z,101158.25
2018-09-22T19:14:32.916Z,101146.09
2018-09-22T19:17:09.519Z,101130.06
2018-09-22T19:19:45.663Z,101144.69
2018-09-22T19:22:25.762Z,101151.81
2018-09-22T19:24:59.340Z,101147.64
2018-09-22T19:27:35.088Z,101145.64
2018-09-22T19:30:11.254Z,101146.95
2018-09-22T19:32:44.440Z,101131.20
2018-09-22T19:35:21.525Z,101145.19
2018-09-22T19:37:57.979Z,101141.86
2018-09-22T19:40:43.677Z,101142.78
2018-09-22T19:43:27.485Z,101130.58
2018-09-22T19:46:00.753Z,101133.36
2018-09-22T19:48:33.398Z,101122.58
2018-09-22T19:51:07.900Z,101131.07
2018-09-22T19:53:38.552Z,101121.52
2018-09-22T19:56:08.184Z,101118.50
2018-09-22T19:58:37.709Z,101129.70
2018-09-22T20:01:08.163Z,101118.59
2018-09-22T20:03:37.697Z,101126.77
2018-09-22T20:06:07.321Z,101127.59
2018-09-22T20:08:36.838Z,101128.24
2018-09-22T20:11:06.742Z,101126.08
2018-09-22T20:13:36.317Z,101121.34
2018-09-22T20:16:05.833Z,101122.83
2018-09-22T20:18:35.354Z,101125.30
2018-09-22T20:21:05.240Z,101120.81
2018-09-22T20:23:34.764Z,101107.55
2018-09-22T20:26:04.266Z,101106.91
2018-09-22T20:28:33.760Z,101101.15
2018-09-22T20:31:03.276Z,101098.22
2018-09-22T20:33:32.782Z,101094.59
2018-09-22T20:36:04.140Z,101090.56
2018-09-22T20:38:33.838Z,101085.47
2018-09-22T20:41:03.388Z,101091.35
2018-09-22T20:43:32.886Z,101093.81
2018-09-22T20:46:02.510Z,101087.78
2018-09-22T20:48:32.044Z,101092.23
2018-09-22T20:51:01.695Z,101092.23
2018-09-22T20:53:31.536Z,101089.24
2018-09-22T20:56:01.071Z,101084.00
2018-09-22T20:58:30.596Z,101080.59
2018-09-22T21:01:00.239Z,101061.02
2018-09-22T21:03:30.161Z,101071.36
2018-09-22T21:05:59.771Z,101070.05
2018-09-22T21:08:29.426Z,101062.78
2018-09-22T21:10:58.980Z,101058.39
2018-09-22T21:13:29.132Z,101052.50
2018-09-22T21:15:58.661Z,101036.31
2018-09-22T21:18:28.171Z,101026.61
2018-09-22T21:20:57.733Z,101038.56
2018-09-22T21:23:27.283Z,101039.47
2018-09-22T21:25:56.984Z,101048.28
2018-09-22T21:28:27.220Z,101051.82
2018-09-22T21:30:56.965Z,101048.00
2018-09-22T21:33:26.491Z,101044.92
2018-09-22T21:35:56.030Z,101040.90
2018-09-22T21:38:25.557Z,101047.80
2018-09-22T21:40:55.109Z,101037.39
2018-09-22T21:43:24.589Z,101033.48
2018-09-22T21:45:54.093Z,101036.03
2018-09-22T21:48:23.607Z,101037.97
2018-09-22T21:50:53.132Z,101041.53
2018-09-22T21:53:22.779Z,101033.81
2018-09-22T21:55:52.309Z,101033.41
2018-09-22T21:58:21.894Z,101034.18
2018-09-22T22:00:52.259Z,101039.57
2018-09-22T22:03:23.027Z,101029.02
2018-09-22T22:05:52.908Z,101022.78
2018-09-22T22:08:22.463Z,101022.54
2018-09-22T22:10:52.059Z,101020.86
2018-09-22T22:13:21.577Z,101015.63
2018-09-22T22:15:51.108Z,101012.14
2018-09-22T22:18:20.626Z,101008.86
2018-09-22T22:20:50.159Z,101007.14
2018-09-22T22:23:19.675Z,101007.55
2018-09-22T22:25:49.239Z,101003.30
2018-09-22T22:28:18.734Z,100997.20
2018-09-22T22:30:48.418Z,100997.60
2018-09-22T22:33:18.257Z,100997.20
2018-09-22T22:35:47.854Z,100997.97
2018-09-22T22:38:17.378Z,100996.96
2018-09-22T22:40:46.925Z,100987.72
2018-09-22T22:43:16.486Z,100991.66
2018-09-22T22:45:46.655Z,100997.05
2018-09-22T22:48:16.197Z,100991.90
2018-09-22T22:50:45.883Z,100987.23
2018-09-22T22:53:15.425Z,100979.70
2018-09-22T22:55:45.033Z,100974.00
2018-09-22T22:58:14.545Z,100967.80
2018-09-22T23:00:44.372Z,100963.51
2018-09-22T23:03:13.898Z,100965.28
2018-09-22T23:05:43.789Z,100960.06
2018-09-22T23:08:13.296Z,100963.63
2018-09-22T23:10:42.846Z,100964.54
2018-09-22T23:13:12.542Z,100966.09
2018-09-22T23:15:42.061Z,100972.05
2018-09-22T23:18:11.989Z,100961.61
2018-09-22T23:20:41.542Z,100962.62
2018-09-22T23:23:11.037Z,100945.42
2018-09-22T23:25:40.546Z,100937.10
2018-09-22T23:28:10.361Z,100945.67
2018-09-22T23:30:39.891Z,100953.89
2018-09-22T23:33:09.383Z,100953.22
2018-09-22T23:35:38.957Z,100949.75
2018-09-22T23:38:08.486Z,100949.44
2018-09-22T23:40:38.037Z,100944.49
2018-09-22T23:43:07.675Z,100934.01
2018-09-22T23:45:37.234Z,100937.95
2018-09-22T23:48:07.236Z,100930.84
2018-09-22T23:50:36.818Z,100919.91
2018-09-22T23:53:06.432Z,100912.49
2018-09-22T23:55:36.305Z,100907.65
2018-09-22T23:58:06.479Z,100904.48
